Time,TemperatureF,DewpointF,PressureIn,WindDirection,WindDirectionDegrees,WindSpeedMPH,WindSpeedGustMPH,Humidity,HourlyPrecipIn,Conditions,Clouds,dailyrainin,SolarRadiationWatts/m^2,SoftwareType,DateUTC
2013-12-30 00:02:00,16.0,3.0,-100.00,NNW,331,6.0,14.0,55,0.00,,,0.21,0.000000,,2013-12-30 07:02:00,
2013-12-30 00:11:00,16.0,3.0,-100.00,NNW,331,6.0,14.0,55,0.00,,,0.21,0.000000,,2013-12-30 07:11:00,
2013-12-30 00:21:00,16.0,3.0,-100.00,NNW,331,6.0,14.0,55,0.00,,,0.21,0.000000,,2013-12-30 07:21:00,
2013-12-30 00:52:00,14.0,2.0,-100.00,NW,317,3.0,-999.0,59,0.00,,,0.21,,,2013-12-30 07:52:00,
2013-12-30 01:02:00,14.0,2.0,-100.00,NW,317,3.0,-999.0,59,0.00,,,0.21,,,2013-12-30 08:02:00,
2013-12-30 01:11:00,14.0,2.0,-100.00,NW,317,3.0,-999.0,59,0.00,,,0.21,,,2013-12-30 08:11:00,
2013-12-30 01:22:00,14.0,2.0,-100.00,NW,317,3.0,-999.0,59,0.00,,,0.21,,,2013-12-30 08:22:00,
2013-12-30 02:23:00,16.0,6.0,-100.00,WNW,302,6.0,9.0,65,-99.99,,,0.21,0.000000,,2013-12-30 09:23:00,
2013-12-30 02:53:00,16.0,6.0,-100.00,WNW,302,6.0,9.0,65,-99.99,,,0.21,0.000000,,2013-12-30 09:53:00,
2013-12-30 03:03:00,16.0,6.0,-100.00,WNW,302,6.0,9.0,65,-99.99,,,0.21,0.000000,,2013-12-30 10:03:00,
2013-12-30 03:12:00,16.0,6.0,-100.00,WNW,302,6.0,9.0,65,-99.99,,,0.21,0.000000,,2013-12-30 10:12:00,
2013-12-30 03:52:00,20.0,7.0,-100.00,WNW,293,6.0,12.0,57,0.00,,,0.21,0.000000,,2013-12-30 10:52:00,
2013-12-30 04:02:00,20.0,7.0,-100.00,WNW,293,6.0,12.0,57,0.00,,,0.21,0.000000,,2013-12-30 11:02:00,
2013-12-30 04:12:00,20.0,7.0,-100.00,WNW,293,6.0,12.0,57,0.00,,,0.21,0.000000,,2013-12-30 11:12:00,
2013-12-30 04:22:00,20.0,7.0,-100.00,WNW,293,6.0,12.0,57,0.00,,,0.21,0.000000,,2013-12-30 11:22:00,
2013-12-30 04:53:00,19.0,5.0,-100.00,NW,311,5.0,12.0,54,0.00,,,0.21,0.000000,,2013-12-30 11:53:00,
2013-12-30 05:02:00,19.0,5.0,-100.00,NW,311,5.0,12.0,54,0.00,,,0.21,0.000000,,2013-12-30 12:02:00,
2013-12-30 05:12:00,19.0,5.0,-100.00,NW,311,5.0,12.0,54,0.00,,,0.21,0.000000,,2013-12-30 12:12:00,
2013-12-30 05:22:00,19.0,5.0,-100.00,NW,311,5.0,12.0,54,0.00,,,0.21,0.000000,,2013-12-30 12:22:00,
2013-12-30 05:52:00,21.0,7.0,-100.00,NW,318,5.0,12.0,53,0.00,,,0.21,0.000000,,2013-12-30 12:52:00,
2013-12-30 06:01:00,21.0,7.0,-100.00,NW,318,5.0,12.0,53,0.00,,,0.21,0.000000,,2013-12-30 13:01:00,
2013-12-30 06:11:00,21.0,7.0,-100.00,NW,318,5.0,12.0,53,0.00,,,0.21,0.000000,,2013-12-30 13:11:00,
2013-12-30 06:21:00,21.0,7.0,-100.00,NW,318,5.0,12.0,53,0.00,,,0.21,0.000000,,2013-12-30 13:21:00,
2013-12-30 07:52:00,19.0,8.0,-100.00,NW,318,4.0,10.0,62,0.00,,,0.21,1.000000,,2013-12-30 14:52:00,
2013-12-30 08:02:00,19.0,8.0,-100.00,NW,318,4.0,10.0,62,0.00,,,0.21,1.000000,,2013-12-30 15:02:00,
2013-12-30 08:11:00,19.0,8.0,-100.00,NW,318,4.0,10.0,62,0.00,,,0.21,1.000000,,2013-12-30 15:11:00,
2013-12-30 08:21:00,19.0,8.0,-100.00,NW,318,4.0,10.0,62,0.00,,,0.21,1.000000,,2013-12-30 15:21:00,
2013-12-30 12:12:00,36.0,9.0,-100.00,North,11,8.0,18.0,32,-99.99,,,0.11,543.000000,,2013-12-30 19:12:00,
2013-12-30 12:22:00,36.0,9.0,-100.00,North,11,8.0,18.0,32,-99.99,,,0.11,543.000000,,2013-12-30 19:22:00,
2013-12-30 12:52:00,37.0,8.0,-100.00,NNE,14,8.0,16.0,29,0.00,,,0.04,568.000000,,2013-12-30 19:52:00,
2013-12-30 13:01:00,37.0,8.0,-100.00,NNE,14,8.0,16.0,29,0.00,,,0.04,568.000000,,2013-12-30 20:01:00,
2013-12-30 13:11:00,37.0,8.0,-100.00,NNE,14,8.0,16.0,29,0.00,,,0.04,568.000000,,2013-12-30 20:11:00,
2013-12-30 13:22:00,37.0,8.0,-100.00,NNE,14,8.0,16.0,29,0.00,,,0.04,568.000000,,2013-12-30 20:22:00,
2013-12-30 13:52:00,39.0,7.0,-100.00,NE,44,7.0,14.0,26,0.00,,,0.01,527.000000,,2013-12-30 20:52:00,
2013-12-30 14:02:00,39.0,7.0,-100.00,NE,44,7.0,14.0,26,0.00,,,0.01,527.000000,,2013-12-30 21:02:00,
2013-12-30 14:11:00,39.0,7.0,-100.00,NE,44,7.0,14.0,26,0.00,,,0.01,527.000000,,2013-12-30 21:11:00,
2013-12-30 14:21:00,39.0,7.0,-100.00,NE,44,7.0,14.0,26,0.00,,,0.01,527.000000,,2013-12-30 21:21:00,
2013-12-30 14:23:00,39.0,6.0,-100.00,NNE,23,5.0,12.0,25,0.00,,,0.00,429.000000,,2013-12-30 21:23:00,
2013-12-30 14:54:00,39.0,6.0,-100.00,NNE,23,5.0,12.0,25,0.00,,,0.00,429.000000,,2013-12-30 21:54:00,
2013-12-30 15:03:00,39.0,6.0,-100.00,NNE,23,5.0,12.0,25,0.00,,,0.00,429.000000,,2013-12-30 22:03:00,
2013-12-30 15:12:00,39.0,6.0,-100.00,NNE,23,5.0,12.0,25,0.00,,,0.00,429.000000,,2013-12-30 22:12:00,
2013-12-30 15:53:00,36.0,7.0,-100.00,WNW,293,4.0,12.0,29,-99.99,,,0.00,284.000000,,2013-12-30 22:53:00,
2013-12-30 16:02:00,36.0,7.0,-100.00,WNW,293,4.0,12.0,29,-99.99,,,0.00,284.000000,,2013-12-30 23:02:00,
2013-12-30 16:12:00,36.0,7.0,-100.00,WNW,293,4.0,12.0,29,-99.99,,,0.00,284.000000,,2013-12-30 23:12:00,
2013-12-30 16:22:00,36.0,7.0,-100.00,WNW,293,4.0,12.0,29,-99.99,,,0.00,284.000000,,2013-12-30 23:22:00,
2013-12-30 16:53:00,26.0,4.0,-100.00,NNW,345,6.0,10.0,39,0.00,,,0.00,31.000000,,2013-12-30 23:53:00,
2013-12-30 17:02:00,26.0,4.0,-100.00,NNW,345,6.0,10.0,39,0.00,,,0.00,31.000000,,2013-12-31 00:02:00,
2013-12-30 17:12:00,26.0,4.0,-100.00,NNW,345,6.0,10.0,39,0.00,,,0.00,31.000000,,2013-12-31 00:12:00,
2013-12-30 17:21:00,26.0,4.0,-100.00,NNW,345,6.0,10.0,39,0.00,,,0.00,31.000000,,2013-12-31 00:21:00,
2013-12-30 17:52:00,21.0,5.0,-100.00,West,272,4.0,6.0,50,0.00,,,0.00,5.000000,,2013-12-31 00:52:00,
2013-12-30 18:02:00,21.0,5.0,-100.00,West,272,4.0,6.0,50,0.00,,,0.00,5.000000,,2013-12-31 01:02:00,
2013-12-30 18:11:00,21.0,5.0,-100.00,West,272,4.0,6.0,50,0.00,,,0.00,5.000000,,2013-12-31 01:11:00,
2013-12-30 18:21:00,21.0,5.0,-100.00,West,272,4.0,6.0,50,0.00,,,0.00,5.000000,,2013-12-31 01:21:00,
2013-12-30 18:52:00,22.0,3.0,-100.00,WNW,292,4.0,8.0,44,0.00,,,0.00,0.000000,,2013-12-31 01:52:00,
2013-12-30 19:02:00,22.0,3.0,-100.00,WNW,292,4.0,8.0,44,0.00,,,0.00,0.000000,,2013-12-31 02:02:00,
2013-12-30 19:12:00,22.0,3.0,-100.00,WNW,292,4.0,8.0,44,0.00,,,0.00,0.000000,,2013-12-31 02:12:00,
2013-12-30 19:22:00,22.0,3.0,-100.00,WNW,292,4.0,8.0,44,0.00,,,0.00,0.000000,,2013-12-31 02:22:00,
2013-12-30 20:23:00,19.0,4.0,-100.00,West,273,3.0,8.0,52,-99.99,,,0.00,0.000000,,2013-12-31 03:23:00,
2013-12-30 20:53:00,19.0,4.0,-100.00,West,273,3.0,8.0,52,-99.99,,,0.00,0.000000,,2013-12-31 03:53:00,
2013-12-30 21:03:00,19.0,4.0,-100.00,West,273,3.0,8.0,52,-99.99,,,0.00,0.000000,,2013-12-31 04:03:00,
2013-12-30 21:13:00,19.0,4.0,-100.00,West,273,3.0,8.0,52,-99.99,,,0.00,0.000000,,2013-12-31 04:13:00,
2013-12-30 21:53:00,17.0,4.0,-100.00,NW,308,3.0,8.0,56,0.00,,,0.00,0.000000,,2013-12-31 04:53:00,
2013-12-30 22:02:00,17.0,4.0,-100.00,NW,308,3.0,8.0,56,0.00,,,0.00,0.000000,,2013-12-31 05:02:00,
2013-12-30 22:12:00,17.0,4.0,-100.00,NW,308,3.0,8.0,56,0.00,,,0.00,0.000000,,2013-12-31 05:12:00,
2013-12-30 22:22:00,17.0,4.0,-100.00,NW,308,3.0,8.0,56,0.00,,,0.00,0.000000,,2013-12-31 05:22:00,
2013-12-30 22:53:00,17.0,5.0,-100.00,WNW,282,5.0,7.0,58,0.00,,,0.00,0.000000,,2013-12-31 05:53:00,
2013-12-30 23:02:00,17.0,5.0,-100.00,WNW,282,5.0,7.0,58,0.00,,,0.00,0.000000,,2013-12-31 06:02:00,
2013-12-30 23:12:00,17.0,5.0,-100.00,WNW,282,5.0,7.0,58,0.00,,,0.00,0.000000,,2013-12-31 06:12:00,
2013-12-30 23:22:00,17.0,5.0,-100.00,WNW,282,5.0,7.0,58,0.00,,,0.00,0.000000,,2013-12-31 06:22:00,
2013-12-30 23:52:00,17.0,5.0,-100.00,West,275,2.0,7.0,59,0.00,,,0.00,0.000000,,2013-12-31 06:52:00,